Portada
METAR-TAF:

METAR-TAF

Aeroports :

Ha'il, Aràbia Saudita

latitud: 27-26N, longitud: 041-41E, altitud: 1015 m

Observació

L'informe es va fer fa 48 minuts, a les 05:00 UTC
Vent 8 kt del Nord/Nord-Est
Temperatura 15°C
Humitat 77%
Pressió 1014 hPa
Visibilitat 10 km o més
sense núvols per sota de 1500 mi sense presència de cumulonimbus.

METAR: OEHL 290500Z 03008KT CAVOK 15/11 Q1014 NOSIG

Hora: 08:48 (05:48 UTC)

Pronòstic

L'informe es va fer fa 6 hores i 48 minuts, a les 23:00 UTC
Pronòstic vàlid del 29 a les 00 UTC al 30 a les 06 UTC
Vent 8 kt del Nord/Nord-Oest amb ràfegues de 18 kt
Visibilitat: 7000 m
Escasses núvols a una alçada de 4000 ft
Temporalment
l' 29 a les 00 UTC al 29 a les 12 UTC
Visibilitat: 3500 m
Pols estès, torb alta de pols
Temporalment
l' 29 a les 11 UTC al 29 a les 16 UTC
Núvols disperses a una alçada de 4000 ft

TAF: OEHL 282300Z 2900/3006 33008G18KT 7000 FEW040 TEMPO 2900/2912 3500 DU BLDU TEMPO 2911/2916 SCT040

Observacions i pronòstics meteorològics de més de 4000 aeroports (METAR i TAF).

Les estacions disponibles són els punts grocs i vermells al mapa.

Posi el ratolí al punt desitjat per veure el nom de l'estació.

Feu clic per veure les observacions i els pronòstics meteorològics.

Per canviar el mapa: feu clic els botons verds amb una creu de color negre per apropar; al botó verd amb un guió per allunyar la imatge; o en les fletxes verdes per a mapes adjacents.


METAR-TAF: